sensor_id;sensor_type;location;lat;lon;timestamp;P1;durP1;ratioP1;P2;durP2;ratioP2
72801;SDS011;61891;55.818;37.084;2022-09-30T00:01:46;9.75;;;5.10;;
72801;SDS011;61891;55.818;37.084;2022-09-30T00:04:16;10.48;;;5.78;;
72801;SDS011;61891;55.818;37.084;2022-09-30T00:06:44;10.00;;;5.88;;
72801;SDS011;61891;55.818;37.084;2022-09-30T00:09:10;9.18;;;5.25;;
72801;SDS011;61891;55.818;37.084;2022-09-30T00:11:37;11.02;;;6.20;;
72801;SDS011;61891;55.818;37.084;2022-09-30T00:14:04;10.05;;;5.70;;
72801;SDS011;61891;55.818;37.084;2022-09-30T00:16:34;10.90;;;5.35;;
72801;SDS011;61891;55.818;37.084;2022-09-30T00:19:01;9.48;;;6.13;;
72801;SDS011;61891;55.818;37.084;2022-09-30T00:21:29;10.18;;;6.13;;
72801;SDS011;61891;55.818;37.084;2022-09-30T00:23:55;11.30;;;5.60;;
72801;SDS011;61891;55.818;37.084;2022-09-30T00:26:22;9.43;;;5.68;;
72801;SDS011;61891;55.818;37.084;2022-09-30T00:28:49;12.32;;;6.53;;
72801;SDS011;61891;55.818;37.084;2022-09-30T00:31:16;10.05;;;5.35;;
72801;SDS011;61891;55.818;37.084;2022-09-30T00:33:44;10.50;;;5.88;;
72801;SDS011;61891;55.818;37.084;2022-09-30T00:36:31;10.00;;;6.22;;
72801;SDS011;61891;55.818;37.084;2022-09-30T00:38:58;8.13;;;3.83;;
72801;SDS011;61891;55.818;37.084;2022-09-30T00:41:23;7.78;;;4.78;;
72801;SDS011;61891;55.818;37.084;2022-09-30T00:43:49;9.68;;;6.13;;
72801;SDS011;61891;55.818;37.084;2022-09-30T00:46:33;11.18;;;5.85;;
72801;SDS011;61891;55.818;37.084;2022-09-30T00:49:02;11.32;;;6.72;;
72801;SDS011;61891;55.818;37.084;2022-09-30T00:51:34;11.02;;;6.18;;
72801;SDS011;61891;55.818;37.084;2022-09-30T00:54:05;10.60;;;6.03;;
72801;SDS011;61891;55.818;37.084;2022-09-30T00:56:59;12.18;;;6.05;;
72801;SDS011;61891;55.818;37.084;2022-09-30T00:59:35;9.77;;;4.95;;
72801;SDS011;61891;55.818;37.084;2022-09-30T01:02:05;10.30;;;5.63;;
72801;SDS011;61891;55.818;37.084;2022-09-30T01:04:32;9.80;;;6.22;;
72801;SDS011;61891;55.818;37.084;2022-09-30T01:07:00;12.82;;;6.80;;
72801;SDS011;61891;55.818;37.084;2022-09-30T01:09:30;10.75;;;5.78;;
72801;SDS011;61891;55.818;37.084;2022-09-30T01:11:58;12.80;;;6.53;;
72801;SDS011;61891;55.818;37.084;2022-09-30T01:14:24;10.15;;;5.70;;
72801;SDS011;61891;55.818;37.084;2022-09-30T01:25:12;11.13;;;5.47;;
72801;SDS011;61891;55.818;37.084;2022-09-30T01:30:22;14.38;;;7.03;;
72801;SDS011;61891;55.818;37.084;2022-09-30T01:33:18;10.40;;;5.88;;
72801;SDS011;61891;55.818;37.084;2022-09-30T01:38:44;10.25;;;5.20;;
72801;SDS011;61891;55.818;37.084;2022-09-30T01:41:37;10.38;;;5.47;;
72801;SDS011;61891;55.818;37.084;2022-09-30T01:44:12;9.73;;;6.38;;
72801;SDS011;61891;55.818;37.084;2022-09-30T01:46:46;10.68;;;5.40;;
72801;SDS011;61891;55.818;37.084;2022-09-30T01:49:25;9.55;;;5.20;;
72801;SDS011;61891;55.818;37.084;2022-09-30T01:52:04;10.38;;;6.38;;
72801;SDS011;61891;55.818;37.084;2022-09-30T01:54:38;10.32;;;5.38;;
72801;SDS011;61891;55.818;37.084;2022-09-30T01:57:21;9.30;;;6.10;;
72801;SDS011;61891;55.818;37.084;2022-09-30T02:00:03;9.80;;;6.00;;
72801;SDS011;61891;55.818;37.084;2022-09-30T02:02:35;11.05;;;5.88;;
72801;SDS011;61891;55.818;37.084;2022-09-30T02:05:11;10.68;;;6.00;;
72801;SDS011;61891;55.818;37.084;2022-09-30T02:07:53;8.98;;;6.07;;
72801;SDS011;61891;55.818;37.084;2022-09-30T02:10:29;10.50;;;5.60;;
72801;SDS011;61891;55.818;37.084;2022-09-30T02:13:04;11.70;;;6.70;;
72801;SDS011;61891;55.818;37.084;2022-09-30T02:15:38;12.88;;;6.57;;
72801;SDS011;61891;55.818;37.084;2022-09-30T02:21:06;13.13;;;7.38;;
72801;SDS011;61891;55.818;37.084;2022-09-30T02:23:35;14.48;;;7.78;;
72801;SDS011;61891;55.818;37.084;2022-09-30T02:26:23;14.18;;;7.40;;
72801;SDS011;61891;55.818;37.084;2022-09-30T02:28:53;13.25;;;7.57;;
72801;SDS011;61891;55.818;37.084;2022-09-30T02:31:23;15.63;;;8.07;;
72801;SDS011;61891;55.818;37.084;2022-09-30T02:33:54;14.15;;;8.63;;
72801;SDS011;61891;55.818;37.084;2022-09-30T02:39:09;12.38;;;6.75;;
72801;SDS011;61891;55.818;37.084;2022-09-30T02:41:44;14.70;;;8.55;;
72801;SDS011;61891;55.818;37.084;2022-09-30T02:44:14;14.45;;;8.82;;
72801;SDS011;61891;55.818;37.084;2022-09-30T02:46:42;15.90;;;8.10;;
72801;SDS011;61891;55.818;37.084;2022-09-30T02:49:22;13.13;;;8.00;;
72801;SDS011;61891;55.818;37.084;2022-09-30T02:52:21;13.13;;;7.70;;
72801;SDS011;61891;55.818;37.084;2022-09-30T03:00:38;12.00;;;6.40;;
72801;SDS011;61891;55.818;37.084;2022-09-30T03:03:09;11.35;;;5.60;;
72801;SDS011;61891;55.818;37.084;2022-09-30T03:05:41;12.88;;;6.00;;
72801;SDS011;61891;55.818;37.084;2022-09-30T03:10:33;11.00;;;5.95;;
72801;SDS011;61891;55.818;37.084;2022-09-30T03:15:56;13.45;;;6.45;;
72801;SDS011;61891;55.818;37.084;2022-09-30T03:21:40;9.48;;;5.50;;
72801;SDS011;61891;55.818;37.084;2022-09-30T03:27:17;11.32;;;5.82;;
72801;SDS011;61891;55.818;37.084;2022-09-30T03:30:06;8.93;;;5.32;;
72801;SDS011;61891;55.818;37.084;2022-09-30T03:35:43;10.05;;;5.80;;
72801;SDS011;61891;55.818;37.084;2022-09-30T03:46:44;8.70;;;5.78;;
72801;SDS011;61891;55.818;37.084;2022-09-30T03:49:25;8.88;;;5.13;;
72801;SDS011;61891;55.818;37.084;2022-09-30T03:51:56;9.77;;;4.35;;
72801;SDS011;61891;55.818;37.084;2022-09-30T03:54:24;6.47;;;3.75;;
72801;SDS011;61891;55.818;37.084;2022-09-30T03:56:50;8.93;;;5.30;;
72801;SDS011;61891;55.818;37.084;2022-09-30T03:59:22;9.20;;;5.55;;
72801;SDS011;61891;55.818;37.084;2022-09-30T04:01:50;7.85;;;4.60;;
72801;SDS011;61891;55.818;37.084;2022-09-30T04:04:16;9.13;;;4.97;;
72801;SDS011;61891;55.818;37.084;2022-09-30T04:06:42;8.48;;;5.53;;
72801;SDS011;61891;55.818;37.084;2022-09-30T04:09:08;10.52;;;5.63;;
72801;SDS011;61891;55.818;37.084;2022-09-30T04:11:34;11.27;;;6.05;;
72801;SDS011;61891;55.818;37.084;2022-09-30T04:14:00;9.48;;;6.05;;
72801;SDS011;61891;55.818;37.084;2022-09-30T04:16:29;9.55;;;6.00;;
72801;SDS011;61891;55.818;37.084;2022-09-30T04:18:55;10.40;;;5.43;;
72801;SDS011;61891;55.818;37.084;2022-09-30T04:21:24;11.30;;;5.93;;
72801;SDS011;61891;55.818;37.084;2022-09-30T04:23:53;8.20;;;5.53;;
72801;SDS011;61891;55.818;37.084;2022-09-30T04:26:19;9.80;;;5.00;;
72801;SDS011;61891;55.818;37.084;2022-09-30T04:28:45;9.63;;;5.13;;
72801;SDS011;61891;55.818;37.084;2022-09-30T04:31:11;8.75;;;5.10;;
72801;SDS011;61891;55.818;37.084;2022-09-30T04:33:38;9.60;;;5.78;;
72801;SDS011;61891;55.818;37.084;2022-09-30T04:36:04;9.05;;;4.90;;
72801;SDS011;61891;55.818;37.084;2022-09-30T04:38:31;9.32;;;5.00;;
72801;SDS011;61891;55.818;37.084;2022-09-30T04:41:00;8.95;;;5.10;;
72801;SDS011;61891;55.818;37.084;2022-09-30T04:43:26;8.93;;;5.03;;
72801;SDS011;61891;55.818;37.084;2022-09-30T04:45:52;10.45;;;4.90;;
72801;SDS011;61891;55.818;37.084;2022-09-30T04:48:18;10.50;;;6.20;;
72801;SDS011;61891;55.818;37.084;2022-09-30T04:50:46;8.43;;;5.75;;
72801;SDS011;61891;55.818;37.084;2022-09-30T04:53:12;10.48;;;5.72;;
72801;SDS011;61891;55.818;37.084;2022-09-30T04:55:39;12.45;;;6.07;;
72801;SDS011;61891;55.818;37.084;2022-09-30T04:58:05;10.32;;;4.93;;
72801;SDS011;61891;55.818;37.084;2022-09-30T05:00:31;8.48;;;5.03;;
72801;SDS011;61891;55.818;37.084;2022-09-30T05:02:57;9.18;;;5.35;;
72801;SDS011;61891;55.818;37.084;2022-09-30T05:05:23;8.02;;;4.97;;
72801;SDS011;61891;55.818;37.084;2022-09-30T05:07:48;8.15;;;4.97;;
72801;SDS011;61891;55.818;37.084;2022-09-30T05:10:14;10.70;;;6.60;;
72801;SDS011;61891;55.818;37.084;2022-09-30T05:12:41;9.90;;;6.32;;
72801;SDS011;61891;55.818;37.084;2022-09-30T05:15:07;9.80;;;5.07;;
72801;SDS011;61891;55.818;37.084;2022-09-30T05:17:34;13.68;;;5.53;;
72801;SDS011;61891;55.818;37.084;2022-09-30T05:20:00;9.45;;;4.93;;
72801;SDS011;61891;55.818;37.084;2022-09-30T05:22:28;8.43;;;4.50;;
72801;SDS011;61891;55.818;37.084;2022-09-30T05:24:54;9.80;;;5.22;;
72801;SDS011;61891;55.818;37.084;2022-09-30T05:27:21;8.88;;;4.80;;
72801;SDS011;61891;55.818;37.084;2022-09-30T05:29:47;7.10;;;4.50;;
72801;SDS011;61891;55.818;37.084;2022-09-30T05:32:13;8.20;;;4.70;;
72801;SDS011;61891;55.818;37.084;2022-09-30T05:34:39;8.90;;;4.18;;
72801;SDS011;61891;55.818;37.084;2022-09-30T05:37:05;9.20;;;4.72;;
72801;SDS011;61891;55.818;37.084;2022-09-30T05:39:31;10.18;;;5.20;;
72801;SDS011;61891;55.818;37.084;2022-09-30T05:41:57;13.55;;;5.68;;
72801;SDS011;61891;55.818;37.084;2022-09-30T05:44:23;6.50;;;3.90;;
72801;SDS011;61891;55.818;37.084;2022-09-30T05:46:49;9.23;;;4.85;;
72801;SDS011;61891;55.818;37.084;2022-09-30T05:49:15;8.55;;;5.38;;
72801;SDS011;61891;55.818;37.084;2022-09-30T05:51:40;9.40;;;5.05;;
72801;SDS011;61891;55.818;37.084;2022-09-30T05:54:06;9.20;;;5.47;;
72801;SDS011;61891;55.818;37.084;2022-09-30T05:56:34;8.73;;;5.35;;
72801;SDS011;61891;55.818;37.084;2022-09-30T05:59:00;8.02;;;4.63;;
72801;SDS011;61891;55.818;37.084;2022-09-30T06:01:26;7.90;;;4.75;;
72801;SDS011;61891;55.818;37.084;2022-09-30T06:03:51;7.78;;;4.95;;
72801;SDS011;61891;55.818;37.084;2022-09-30T06:06:17;10.38;;;5.65;;
72801;SDS011;61891;55.818;37.084;2022-09-30T06:08:46;11.00;;;6.35;;
72801;SDS011;61891;55.818;37.084;2022-09-30T06:11:16;9.63;;;6.13;;
72801;SDS011;61891;55.818;37.084;2022-09-30T06:13:44;7.85;;;4.07;;
72801;SDS011;61891;55.818;37.084;2022-09-30T06:16:12;7.47;;;3.45;;
72801;SDS011;61891;55.818;37.084;2022-09-30T06:18:39;11.05;;;4.68;;
72801;SDS011;61891;55.818;37.084;2022-09-30T06:21:06;9.48;;;5.32;;
72801;SDS011;61891;55.818;37.084;2022-09-30T06:23:33;8.30;;;5.30;;
72801;SDS011;61891;55.818;37.084;2022-09-30T06:26:00;7.07;;;4.15;;
72801;SDS011;61891;55.818;37.084;2022-09-30T06:28:27;9.48;;;4.60;;
72801;SDS011;61891;55.818;37.084;2022-09-30T06:30:53;7.03;;;4.20;;
72801;SDS011;61891;55.818;37.084;2022-09-30T06:33:19;8.95;;;4.50;;
72801;SDS011;61891;55.818;37.084;2022-09-30T06:35:46;8.75;;;4.32;;
72801;SDS011;61891;55.818;37.084;2022-09-30T06:38:12;7.82;;;4.60;;
72801;SDS011;61891;55.818;37.084;2022-09-30T06:40:42;9.15;;;4.60;;
72801;SDS011;61891;55.818;37.084;2022-09-30T06:43:08;8.38;;;4.53;;
72801;SDS011;61891;55.818;37.084;2022-09-30T06:45:35;6.70;;;4.20;;
72801;SDS011;61891;55.818;37.084;2022-09-30T06:50:29;9.90;;;4.57;;
72801;SDS011;61891;55.818;37.084;2022-09-30T06:52:57;8.52;;;4.55;;
72801;SDS011;61891;55.818;37.084;2022-09-30T06:55:24;8.23;;;4.68;;
72801;SDS011;61891;55.818;37.084;2022-09-30T06:57:52;8.68;;;4.47;;
72801;SDS011;61891;55.818;37.084;2022-09-30T07:00:19;7.57;;;4.65;;
72801;SDS011;61891;55.818;37.084;2022-09-30T07:05:13;9.88;;;4.40;;
72801;SDS011;61891;55.818;37.084;2022-09-30T07:07:40;10.35;;;4.72;;
72801;SDS011;61891;55.818;37.084;2022-09-30T07:10:06;9.85;;;5.15;;
72801;SDS011;61891;55.818;37.084;2022-09-30T07:14:58;8.82;;;4.68;;
72801;SDS011;61891;55.818;37.084;2022-09-30T07:17:27;7.97;;;4.80;;
72801;SDS011;61891;55.818;37.084;2022-09-30T07:19:53;7.60;;;3.47;;
72801;SDS011;61891;55.818;37.084;2022-09-30T07:22:19;8.98;;;5.13;;
72801;SDS011;61891;55.818;37.084;2022-09-30T07:24:59;8.25;;;5.00;;
72801;SDS011;61891;55.818;37.084;2022-09-30T07:27:30;8.57;;;5.13;;
72801;SDS011;61891;55.818;37.084;2022-09-30T07:29:57;8.40;;;4.65;;
72801;SDS011;61891;55.818;37.084;2022-09-30T07:32:24;8.15;;;4.68;;
72801;SDS011;61891;55.818;37.084;2022-09-30T07:34:50;8.18;;;4.70;;
72801;SDS011;61891;55.818;37.084;2022-09-30T07:37:16;6.95;;;4.18;;
72801;SDS011;61891;55.818;37.084;2022-09-30T07:39:44;10.80;;;4.43;;
72801;SDS011;61891;55.818;37.084;2022-09-30T07:42:12;9.38;;;4.78;;
72801;SDS011;61891;55.818;37.084;2022-09-30T07:44:40;7.65;;;4.47;;
72801;SDS011;61891;55.818;37.084;2022-09-30T07:47:09;9.70;;;4.57;;
72801;SDS011;61891;55.818;37.084;2022-09-30T07:49:36;8.95;;;4.38;;
72801;SDS011;61891;55.818;37.084;2022-09-30T07:52:03;7.30;;;4.63;;
72801;SDS011;61891;55.818;37.084;2022-09-30T07:54:30;8.57;;;4.53;;
72801;SDS011;61891;55.818;37.084;2022-09-30T07:56:57;14.23;;;4.20;;
72801;SDS011;61891;55.818;37.084;2022-09-30T07:59:24;7.55;;;4.00;;
72801;SDS011;61891;55.818;37.084;2022-09-30T08:01:51;10.43;;;4.68;;
72801;SDS011;61891;55.818;37.084;2022-09-30T08:04:18;7.55;;;4.90;;
72801;SDS011;61891;55.818;37.084;2022-09-30T08:06:46;9.90;;;4.80;;
72801;SDS011;61891;55.818;37.084;2022-09-30T08:09:15;7.55;;;4.78;;
72801;SDS011;61891;55.818;37.084;2022-09-30T08:11:42;10.35;;;5.07;;
72801;SDS011;61891;55.818;37.084;2022-09-30T08:14:12;10.32;;;4.60;;
72801;SDS011;61891;55.818;37.084;2022-09-30T08:16:39;8.10;;;4.75;;
72801;SDS011;61891;55.818;37.084;2022-09-30T08:19:05;7.47;;;4.90;;
72801;SDS011;61891;55.818;37.084;2022-09-30T08:21:30;11.25;;;5.88;;
72801;SDS011;61891;55.818;37.084;2022-09-30T08:23:56;9.18;;;5.40;;
72801;SDS011;61891;55.818;37.084;2022-09-30T08:26:22;9.30;;;5.18;;
72801;SDS011;61891;55.818;37.084;2022-09-30T08:28:49;10.90;;;5.10;;
72801;SDS011;61891;55.818;37.084;2022-09-30T08:31:19;10.82;;;5.53;;
72801;SDS011;61891;55.818;37.084;2022-09-30T08:33:46;8.95;;;4.65;;
72801;SDS011;61891;55.818;37.084;2022-09-30T08:38:39;8.52;;;4.82;;
72801;SDS011;61891;55.818;37.084;2022-09-30T08:43:59;9.63;;;5.70;;
72801;SDS011;61891;55.818;37.084;2022-09-30T08:52:13;8.82;;;5.47;;
72801;SDS011;61891;55.818;37.084;2022-09-30T08:54:43;10.98;;;6.18;;
72801;SDS011;61891;55.818;37.084;2022-09-30T08:57:12;11.18;;;5.72;;
72801;SDS011;61891;55.818;37.084;2022-09-30T09:02:14;8.52;;;5.43;;
72801;SDS011;61891;55.818;37.084;2022-09-30T09:04:41;7.95;;;5.45;;
72801;SDS011;61891;55.818;37.084;2022-09-30T09:12:54;9.40;;;5.53;;
72801;SDS011;61891;55.818;37.084;2022-09-30T09:18:41;8.73;;;6.13;;
72801;SDS011;61891;55.818;37.084;2022-09-30T09:21:33;9.25;;;6.55;;
72801;SDS011;61891;55.818;37.084;2022-09-30T09:24:02;11.57;;;6.18;;
72801;SDS011;61891;55.818;37.084;2022-09-30T09:26:31;9.35;;;5.55;;
72801;SDS011;61891;55.818;37.084;2022-09-30T09:31:51;11.88;;;5.80;;
72801;SDS011;61891;55.818;37.084;2022-09-30T09:34:23;11.15;;;6.55;;
72801;SDS011;61891;55.818;37.084;2022-09-30T09:47:53;9.38;;;5.95;;
72801;SDS011;61891;55.818;37.084;2022-09-30T09:50:32;8.10;;;5.68;;
72801;SDS011;61891;55.818;37.084;2022-09-30T09:56:00;9.52;;;5.95;;
72801;SDS011;61891;55.818;37.084;2022-09-30T09:58:27;11.63;;;6.18;;
72801;SDS011;61891;55.818;37.084;2022-09-30T10:00:57;11.90;;;6.13;;
72801;SDS011;61891;55.818;37.084;2022-09-30T10:03:44;10.55;;;5.97;;
72801;SDS011;61891;55.818;37.084;2022-09-30T10:06:12;10.95;;;6.50;;
72801;SDS011;61891;55.818;37.084;2022-09-30T10:11:17;9.85;;;5.90;;
72801;SDS011;61891;55.818;37.084;2022-09-30T10:13:46;9.05;;;6.13;;
72801;SDS011;61891;55.818;37.084;2022-09-30T10:16:26;9.68;;;6.05;;
72801;SDS011;61891;55.818;37.084;2022-09-30T10:18:52;10.20;;;5.93;;
72801;SDS011;61891;55.818;37.084;2022-09-30T10:21:25;7.25;;;5.03;;
72801;SDS011;61891;55.818;37.084;2022-09-30T10:23:52;8.40;;;5.65;;
72801;SDS011;61891;55.818;37.084;2022-09-30T10:28:54;11.35;;;6.03;;
72801;SDS011;61891;55.818;37.084;2022-09-30T10:31:22;11.13;;;6.22;;
72801;SDS011;61891;55.818;37.084;2022-09-30T10:33:54;9.85;;;6.13;;
72801;SDS011;61891;55.818;37.084;2022-09-30T10:36:21;11.00;;;5.15;;
72801;SDS011;61891;55.818;37.084;2022-09-30T10:38:56;8.98;;;6.05;;
72801;SDS011;61891;55.818;37.084;2022-09-30T10:41:33;9.48;;;5.88;;
72801;SDS011;61891;55.818;37.084;2022-09-30T10:44:02;9.32;;;6.25;;
72801;SDS011;61891;55.818;37.084;2022-09-30T10:46:34;10.82;;;5.43;;
72801;SDS011;61891;55.818;37.084;2022-09-30T10:51:54;9.23;;;6.43;;
72801;SDS011;61891;55.818;37.084;2022-09-30T10:54:34;10.90;;;7.05;;
72801;SDS011;61891;55.818;37.084;2022-09-30T10:57:14;10.30;;;6.97;;
72801;SDS011;61891;55.818;37.084;2022-09-30T10:59:43;7.60;;;4.63;;
72801;SDS011;61891;55.818;37.084;2022-09-30T11:05:22;8.80;;;5.40;;
72801;SDS011;61891;55.818;37.084;2022-09-30T11:10:58;9.85;;;6.65;;
72801;SDS011;61891;55.818;37.084;2022-09-30T11:17:09;10.55;;;5.90;;
72801;SDS011;61891;55.818;37.084;2022-09-30T11:25:12;9.65;;;5.28;;
72801;SDS011;61891;55.818;37.084;2022-09-30T11:30:34;10.50;;;6.57;;
72801;SDS011;61891;55.818;37.084;2022-09-30T11:35:49;8.88;;;5.05;;
72801;SDS011;61891;55.818;37.084;2022-09-30T11:38:25;8.18;;;5.28;;
72801;SDS011;61891;55.818;37.084;2022-09-30T11:41:19;8.77;;;5.22;;
72801;SDS011;61891;55.818;37.084;2022-09-30T12:00:11;10.23;;;6.47;;
72801;SDS011;61891;55.818;37.084;2022-09-30T12:02:47;9.25;;;5.30;;
72801;SDS011;61891;55.818;37.084;2022-09-30T12:08:14;11.30;;;6.00;;
72801;SDS011;61891;55.818;37.084;2022-09-30T12:13:22;10.48;;;7.00;;
72801;SDS011;61891;55.818;37.084;2022-09-30T12:15:51;10.43;;;6.82;;
72801;SDS011;61891;55.818;37.084;2022-09-30T12:18:24;12.85;;;6.82;;
72801;SDS011;61891;55.818;37.084;2022-09-30T12:20:57;10.75;;;6.28;;
72801;SDS011;61891;55.818;37.084;2022-09-30T12:26:10;9.65;;;5.95;;
72801;SDS011;61891;55.818;37.084;2022-09-30T12:28:45;12.13;;;7.45;;
72801;SDS011;61891;55.818;37.084;2022-09-30T12:34:25;10.48;;;6.57;;
72801;SDS011;61891;55.818;37.084;2022-09-30T12:49:23;9.75;;;6.72;;
72801;SDS011;61891;55.818;37.084;2022-09-30T12:51:53;11.60;;;6.93;;
72801;SDS011;61891;55.818;37.084;2022-09-30T12:54:32;12.90;;;7.57;;
72801;SDS011;61891;55.818;37.084;2022-09-30T12:57:03;12.95;;;7.28;;
72801;SDS011;61891;55.818;37.084;2022-09-30T12:59:34;13.05;;;7.80;;
72801;SDS011;61891;55.818;37.084;2022-09-30T13:02:03;14.23;;;8.90;;
72801;SDS011;61891;55.818;37.084;2022-09-30T13:27:38;14.77;;;8.85;;
72801;SDS011;61891;55.818;37.084;2022-09-30T13:32:37;16.38;;;9.90;;
72801;SDS011;61891;55.818;37.084;2022-09-30T13:43:57;11.52;;;8.23;;
72801;SDS011;61891;55.818;37.084;2022-09-30T13:46:32;12.95;;;7.75;;
72801;SDS011;61891;55.818;37.084;2022-09-30T13:52:17;17.20;;;8.07;;
72801;SDS011;61891;55.818;37.084;2022-09-30T13:54:48;14.07;;;7.03;;
72801;SDS011;61891;55.818;37.084;2022-09-30T13:57:22;10.15;;;6.53;;
72801;SDS011;61891;55.818;37.084;2022-09-30T14:00:05;11.90;;;7.00;;
72801;SDS011;61891;55.818;37.084;2022-09-30T14:08:24;11.23;;;7.22;;
72801;SDS011;61891;55.818;37.084;2022-09-30T14:22:11;13.60;;;7.43;;
72801;SDS011;61891;55.818;37.084;2022-09-30T14:24:39;20.77;;;11.02;;
72801;SDS011;61891;55.818;37.084;2022-09-30T14:27:15;21.08;;;11.75;;
72801;SDS011;61891;55.818;37.084;2022-09-30T14:32:27;21.20;;;11.50;;
72801;SDS011;61891;55.818;37.084;2022-09-30T14:34:56;17.73;;;9.48;;
72801;SDS011;61891;55.818;37.084;2022-09-30T14:37:30;15.70;;;8.57;;
72801;SDS011;61891;55.818;37.084;2022-09-30T14:40:01;17.33;;;9.55;;
72801;SDS011;61891;55.818;37.084;2022-09-30T14:42:30;15.23;;;8.85;;
72801;SDS011;61891;55.818;37.084;2022-09-30T14:44:57;15.77;;;8.27;;
72801;SDS011;61891;55.818;37.084;2022-09-30T14:47:32;14.68;;;8.75;;
72801;SDS011;61891;55.818;37.084;2022-09-30T14:50:03;17.42;;;8.57;;
72801;SDS011;61891;55.818;37.084;2022-09-30T14:52:36;20.35;;;10.15;;
72801;SDS011;61891;55.818;37.084;2022-09-30T14:55:40;13.70;;;7.32;;
72801;SDS011;61891;55.818;37.084;2022-09-30T15:00:46;15.55;;;8.50;;
72801;SDS011;61891;55.818;37.084;2022-09-30T15:03:14;14.95;;;8.73;;
72801;SDS011;61891;55.818;37.084;2022-09-30T15:05:40;17.45;;;8.90;;
72801;SDS011;61891;55.818;37.084;2022-09-30T15:08:10;12.63;;;6.80;;
72801;SDS011;61891;55.818;37.084;2022-09-30T15:10:45;16.25;;;9.73;;
72801;SDS011;61891;55.818;37.084;2022-09-30T15:13:28;17.95;;;9.73;;
72801;SDS011;61891;55.818;37.084;2022-09-30T15:15:56;17.33;;;10.55;;
72801;SDS011;61891;55.818;37.084;2022-09-30T15:18:26;17.00;;;9.23;;
72801;SDS011;61891;55.818;37.084;2022-09-30T15:20:53;19.40;;;9.65;;
72801;SDS011;61891;55.818;37.084;2022-09-30T15:23:25;16.77;;;8.93;;
72801;SDS011;61891;55.818;37.084;2022-09-30T15:25:53;16.85;;;9.90;;
72801;SDS011;61891;55.818;37.084;2022-09-30T15:28:19;17.10;;;9.85;;
72801;SDS011;61891;55.818;37.084;2022-09-30T15:30:45;17.63;;;9.65;;
72801;SDS011;61891;55.818;37.084;2022-09-30T15:33:12;16.83;;;8.80;;
72801;SDS011;61891;55.818;37.084;2022-09-30T15:35:42;19.88;;;9.77;;
72801;SDS011;61891;55.818;37.084;2022-09-30T15:38:14;17.73;;;9.45;;
72801;SDS011;61891;55.818;37.084;2022-09-30T15:40:46;14.15;;;8.15;;
72801;SDS011;61891;55.818;37.084;2022-09-30T15:43:31;18.60;;;10.43;;
72801;SDS011;61891;55.818;37.084;2022-09-30T15:48:42;18.40;;;10.88;;
72801;SDS011;61891;55.818;37.084;2022-09-30T15:54:00;17.40;;;9.50;;
72801;SDS011;61891;55.818;37.084;2022-09-30T15:56:40;14.98;;;8.13;;
72801;SDS011;61891;55.818;37.084;2022-09-30T15:59:08;14.60;;;8.38;;
72801;SDS011;61891;55.818;37.084;2022-09-30T16:01:36;15.50;;;10.02;;
72801;SDS011;61891;55.818;37.084;2022-09-30T16:14:41;12.85;;;7.68;;
72801;SDS011;61891;55.818;37.084;2022-09-30T16:17:32;12.13;;;6.82;;
72801;SDS011;61891;55.818;37.084;2022-09-30T16:20:01;14.98;;;8.77;;
72801;SDS011;61891;55.818;37.084;2022-09-30T16:25:20;16.27;;;9.20;;
72801;SDS011;61891;55.818;37.084;2022-09-30T16:27:46;16.80;;;9.15;;
72801;SDS011;61891;55.818;37.084;2022-09-30T16:30:17;16.75;;;9.05;;
72801;SDS011;61891;55.818;37.084;2022-09-30T16:32:45;13.80;;;8.27;;
72801;SDS011;61891;55.818;37.084;2022-09-30T16:35:15;17.85;;;10.32;;
72801;SDS011;61891;55.818;37.084;2022-09-30T16:37:46;18.35;;;10.27;;
72801;SDS011;61891;55.818;37.084;2022-09-30T16:42:43;17.67;;;9.63;;
72801;SDS011;61891;55.818;37.084;2022-09-30T16:45:12;19.85;;;11.25;;
72801;SDS011;61891;55.818;37.084;2022-09-30T16:47:41;18.58;;;10.43;;
72801;SDS011;61891;55.818;37.084;2022-09-30T16:50:27;15.40;;;9.10;;
72801;SDS011;61891;55.818;37.084;2022-09-30T16:52:57;20.27;;;11.45;;
72801;SDS011;61891;55.818;37.084;2022-09-30T16:55:23;17.15;;;9.57;;
72801;SDS011;61891;55.818;37.084;2022-09-30T16:57:50;17.88;;;10.60;;
72801;SDS011;61891;55.818;37.084;2022-09-30T17:00:21;20.23;;;10.90;;
72801;SDS011;61891;55.818;37.084;2022-09-30T17:02:47;19.92;;;10.73;;
72801;SDS011;61891;55.818;37.084;2022-09-30T17:05:14;20.85;;;11.25;;
72801;SDS011;61891;55.818;37.084;2022-09-30T17:07:43;18.55;;;10.43;;
72801;SDS011;61891;55.818;37.084;2022-09-30T17:10:25;17.15;;;9.70;;
72801;SDS011;61891;55.818;37.084;2022-09-30T17:12:55;22.25;;;10.93;;
72801;SDS011;61891;55.818;37.084;2022-09-30T17:15:31;16.48;;;8.90;;
72801;SDS011;61891;55.818;37.084;2022-09-30T17:17:57;21.30;;;11.32;;
72801;SDS011;61891;55.818;37.084;2022-09-30T17:20:24;20.20;;;11.88;;
72801;SDS011;61891;55.818;37.084;2022-09-30T17:22:50;19.73;;;9.50;;
72801;SDS011;61891;55.818;37.084;2022-09-30T17:25:16;22.25;;;10.75;;
72801;SDS011;61891;55.818;37.084;2022-09-30T17:27:45;20.95;;;11.05;;
72801;SDS011;61891;55.818;37.084;2022-09-30T17:30:16;20.23;;;11.68;;
72801;SDS011;61891;55.818;37.084;2022-09-30T17:32:43;22.40;;;11.20;;
72801;SDS011;61891;55.818;37.084;2022-09-30T17:35:10;19.23;;;10.65;;
72801;SDS011;61891;55.818;37.084;2022-09-30T17:37:36;21.60;;;13.77;;
72801;SDS011;61891;55.818;37.084;2022-09-30T17:40:04;20.55;;;11.27;;
72801;SDS011;61891;55.818;37.084;2022-09-30T17:42:51;21.08;;;11.85;;
72801;SDS011;61891;55.818;37.084;2022-09-30T17:45:36;19.05;;;10.73;;
72801;SDS011;61891;55.818;37.084;2022-09-30T17:48:03;24.50;;;12.80;;
72801;SDS011;61891;55.818;37.084;2022-09-30T17:50:32;20.13;;;10.80;;
72801;SDS011;61891;55.818;37.084;2022-09-30T17:52:59;19.77;;;12.10;;
72801;SDS011;61891;55.818;37.084;2022-09-30T17:55:27;23.65;;;12.40;;
72801;SDS011;61891;55.818;37.084;2022-09-30T17:57:54;22.08;;;11.07;;
72801;SDS011;61891;55.818;37.084;2022-09-30T18:00:20;21.63;;;12.43;;
72801;SDS011;61891;55.818;37.084;2022-09-30T18:02:47;18.42;;;10.65;;
72801;SDS011;61891;55.818;37.084;2022-09-30T18:05:13;20.35;;;11.30;;
72801;SDS011;61891;55.818;37.084;2022-09-30T18:07:40;20.50;;;10.23;;
72801;SDS011;61891;55.818;37.084;2022-09-30T18:10:06;20.88;;;10.73;;
72801;SDS011;61891;55.818;37.084;2022-09-30T18:12:36;20.73;;;11.32;;
72801;SDS011;61891;55.818;37.084;2022-09-30T18:15:01;21.23;;;11.00;;
72801;SDS011;61891;55.818;37.084;2022-09-30T18:17:28;19.00;;;9.82;;
72801;SDS011;61891;55.818;37.084;2022-09-30T18:19:54;21.23;;;11.18;;
72801;SDS011;61891;55.818;37.084;2022-09-30T18:22:19;19.15;;;11.57;;
72801;SDS011;61891;55.818;37.084;2022-09-30T18:24:45;20.08;;;10.68;;
72801;SDS011;61891;55.818;37.084;2022-09-30T18:27:29;17.77;;;9.93;;
72801;SDS011;61891;55.818;37.084;2022-09-30T18:29:58;18.85;;;11.10;;
72801;SDS011;61891;55.818;37.084;2022-09-30T18:32:29;17.20;;;10.10;;
72801;SDS011;61891;55.818;37.084;2022-09-30T18:34:56;20.38;;;11.55;;
72801;SDS011;61891;55.818;37.084;2022-09-30T18:37:22;20.77;;;10.30;;
72801;SDS011;61891;55.818;37.084;2022-09-30T18:39:49;22.67;;;11.77;;
72801;SDS011;61891;55.818;37.084;2022-09-30T18:44:43;17.83;;;10.30;;
72801;SDS011;61891;55.818;37.084;2022-09-30T18:47:08;19.33;;;10.70;;
72801;SDS011;61891;55.818;37.084;2022-09-30T18:49:34;15.98;;;9.77;;